Historyczne dane pomiarowe

Dodano dane terminowe – wersja testowa.

Dane z okresu 1951-2019

Wersja bazy: 1.34 [2019-03-16, lista zmian], aktualizacja planowana na 2019-04-15

Dane meteo z obszaru Polski uzyskane na podstawie danych udostępnionych przez Instytut Meteorologii i Gospodarki Wodnej – Państwowy Instytut Badawczy.

 

Wybierz Datę:    

       

TemperaturaWilgotnośćZachmurzenieWiatrCiśnienieWidzialnośćZjawiska
 Data    tng td wb rh cc ccl cl cm ch dir g1 g2 mslp ppp      
1999-07-23 00:00:00 16.2--- 7.7 11.657wxwxwx3wx--1013.0 990.3 0.0---wx
1999-07-23 01:00:00 16.1--- 8.0 11.759wxwxwx3wx--1013.1 990.4----wx
1999-07-23 02:00:00 15.5--- 8.1 11.561wxwxwxwx4wx--1013.4 990.6----wx
1999-07-23 03:00:00 14.7--- 8.6 11.467wxwxwxwx3wx--1013.8 990.9----wx
1999-07-23 04:00:00 13.9--- 9.0 11.272wxwxwx3wx--1013.6 990.7----wx
1999-07-23 05:00:00 14.3--- 10.0 11.975wxwxwx4wx--1013.8 990.9----wx
1999-07-23 06:00:00 15.2--- 10.0 12.371wxwxwxwx4wx--1014.1 991.3 0.0---wx
1999-07-23 07:00:00 15.2--- 11.0 12.876wxwxwx3wx--1014.3 991.5----wx
1999-07-23 08:00:00 14.9--- 11.2 12.879wxwxwx2wx--1014.9 992.0----wx
1999-07-23 09:00:00 14.5--- 12.4 13.388wxwxwx2wx--1015.2 992.3----wx
1999-07-23 10:00:00 14.5--- 13.3 13.893wxwxwx3wx--1015.5 992.6----wx
1999-07-23 11:00:00 14.5--- 13.5 13.994wxwxwx3wx--1015.5 992.6----wx
1999-07-23 12:00:00 15.8--- 13.5 14.486wxwxwxwx4wx--1015.6 992.8 0.0---wxw1
1999-07-23 13:00:00 15.3--- 14.3 14.794wxwxwxwx3wx--1016.2 993.3----wxw1
1999-07-23 14:00:00 16.5--- 13.3 14.682wxwxwxwx3wx--1016.3 993.5----wx
1999-07-23 15:00:00 16.5--- 12.3 14.076wxwxwxwx3wx--1016.8 994.0----wxw1
1999-07-23 16:00:00 16.7--- 11.2 13.570wxwxwxwx3wx--1017.0 994.2----wx
1999-07-23 17:00:00 16.9--- 11.2 13.669wxwxwxwx3wx--1017.6 994.8----wx
1999-07-23 18:00:00 15.5--- 11.3 13.176wxwxwxwx3wx--1018.2 995.3 0.1---wxw1
1999-07-23 19:00:00 15.2--- 11.0 12.876wxwxwx2wx--1018.7 995.8----wx
1999-07-23 20:00:00 15.1--- 10.9 12.776wxwxwx2wx--1019.3 996.3----wx
1999-07-23 21:00:00 15.1--- 10.5 12.574wxwxwx2wx--1019.5 996.5----wx
1999-07-23 22:00:00 14.8--- 10.2 12.274wxwxwx2wx--1019.9 996.9----wx
1999-07-23 23:00:00 14.9--- 10.1 12.273wxwxwx2wx--1019.9 996.9----wx

 

Źródłem pochodzenia danych jest Instytut Meteorologii i Gospodarki Wodnej – Państwowy Instytut Badawczy. Dane Instytutu Meteorologii i Gospodarki Wodnej – Państwowego Instytutu Badawczego zostały przetworzone.

Dane źródłowe można odnaleźć na stronie https://dane.imgw.pl